Have a Safe July 4th! 

Flight Track Log - Related Links

Times and Time Zones

All times are in EDT time to prevent confusion due to time zone crossing. See the CPZ5753 flight status page for this flight to view local times or setup timezone preferences in your user account.

Time Position Orientation Groundspeed Altitude Reporting Facility
EDT Latitude Longitude Course Direction KTS MPH feet Rate Location/Type
Mon 11:47:04 AM 39.8667 -75.2833 287° West 148 170 700  Level Philadelphia TRACON
Mon 11:52:13 AM 39.9400 -75.5894 North 296 341 10,000 1,599 Climbing FAA TRACON SMA TRACON (SMA)
Mon 11:52:53 AM 39.9989 -75.5831 North 307 353 10,000 900 Level FAA TRACON SMA TRACON (SMA)
Mon 11:53:53 AM 40.0853 -75.5744 North 310 357 11,500 1,680 Climbing FAA TRACON SMA TRACON (SMA)
Mon 11:54:33 AM 40.1386 -75.5692 North 311 358 12,800 1,575 Climbing FAA TRACON SMA TRACON (SMA)
Mon 11:55:13 AM 40.2003 -75.5636 328° Northwest 320 368 13,600 1,950 Climbing FAA TRACON SMA TRACON (SMA)
Mon 11:55:53 AM 40.2511 -75.6044 311° West 310 357 15,400 2,040 Climbing FAA TRACON SMA TRACON (SMA)
Mon 11:56:53 AM 40.3089 -75.6914 311° West 315 362 17,000 1,440 Climbing FAA TRACON SMA TRACON (SMA)
Mon 11:57:33 AM 40.3486 -75.7511 310° West 317 365 17,800 750 Climbing FAA TRACON SMA TRACON (SMA)
Mon 11:58:13 AM 40.3578 -75.7656 306° West 318 366 18,000 1,541 Climbing FAA TRACON SMA TRACON (SMA)
Mon 11:59:22 AM 40.4411 -75.9142 283° West 333 383 20,600 2,093 Climbing New York Center
Mon 12:00:22 PM 40.4628 -76.0386 281° West 339 390 22,500 1,736 Climbing New York Center
Mon 12:01:23 PM 40.4819 -76.1683 281° West 350 403 24,100 1,537 Climbing New York Center
Mon 12:02:23 PM 40.5008 -76.2981 283° West 362 417 25,600 1,339 Climbing New York Center
Mon 12:03:24 PM 40.5239 -76.4311 282° West 369 425 26,800 1,240 Climbing New York Center
Mon 12:04:24 PM 40.5464 -76.5667 278° West 376 433 28,100 1,220 Climbing New York Center
Mon 12:05:22 PM 40.5606 -76.7044 277° West 376 433 29,200 958 Climbing New York Center
Mon 12:06:23 PM 40.5742 -76.8450 277° West 381 438 30,000 744 Climbing New York Center
Mon 12:07:23 PM 40.5875 -76.9883 277° West 392 451 30,700 850 Climbing New York Center
Mon 12:08:23 PM 40.6008 -77.1317 276° West 392 451 31,700 942 Climbing New York Center
Mon 12:09:24 PM 40.6119 -77.2722 277° West 392 451 32,600 767 Climbing New York Center
Mon 12:10:36 PM 40.6261 -77.4269 276° West 387 445 33,400 440 Climbing New York Center
Mon 12:12:35 PM 40.6511 -77.7478 276° West 399 459 34,000 201 Climbing Cleveland Center
Mon 12:13:35 PM 40.6631 -77.8950 276° West 405 466 34,000  Level Cleveland Center
Mon 12:14:35 PM 40.6747 -78.0397 276° West 405 466 34,000  Level Cleveland Center
Mon 12:15:35 PM 40.6861 -78.1872 276° West 405 466 34,000  Level Cleveland Center
Mon 12:16:35 PM 40.6975 -78.3319 275° West 405 466 34,000  Level Cleveland Center
Mon 12:17:35 PM 40.7067 -78.4794 277° West 405 466 34,000  Level Cleveland Center
Mon 12:18:35 PM 40.7197 -78.6269 275° West 405 466 34,000  Level Cleveland Center
Mon 12:19:35 PM 40.7303 -78.7747 275° West 405 466 34,000  Level Cleveland Center
Mon 12:20:35 PM 40.7389 -78.9197 276° West 405 466 34,000  Level Cleveland Center
Mon 12:21:35 PM 40.7514 -79.0675 275° West 405 466 34,000  Level Cleveland Center
Mon 12:22:35 PM 40.7614 -79.2125 275° West 405 466 34,000  Level Cleveland Center
Mon 12:23:35 PM 40.7714 -79.3575 275° West 405 466 34,000  Level Cleveland Center
Mon 12:24:35 PM 40.7814 -79.5056 276° West 405 466 34,000  Level Cleveland Center
Mon 12:25:35 PM 40.7931 -79.6506 274° West 405 466 34,000  Level Cleveland Center
Mon 12:26:35 PM 40.8003 -79.7986 275° West 405 466 34,000  Level Cleveland Center
Mon 12:27:35 PM 40.8094 -79.9411 274° West 405 466 34,000  Level Cleveland Center
Mon 12:28:35 PM 40.8167 -80.0919 278° West 405 466 34,000  Level Cleveland Center
Mon 12:29:35 PM 40.8317 -80.2347 288° West 405 466 34,000  Level Cleveland Center
Mon 12:30:35 PM 40.8592 -80.3442 293° West 405 466 34,000  Level Cleveland Center
Mon 12:31:35 PM 40.9094 -80.5033 290° West 393 452 34,000  Level Cleveland Center
Mon 12:32:35 PM 40.9469 -80.6408 290° West 399 459 34,000  Level Cleveland Center
Mon 12:33:35 PM 40.9842 -80.7783 291° West 399 459 34,000  Level Cleveland Center
Mon 12:34:35 PM 41.0236 -80.9133 288° West 399 459 34,000  Level Cleveland Center
Mon 12:35:47 PM 41.0583 -81.0539 290° West 399 459 34,000  Level Cleveland Center
Mon 12:36:47 PM 41.1036 -81.2197 290° West 405 466 34,000  Level Cleveland Center
Mon 12:37:47 PM 41.1422 -81.3578 290° West 405 466 34,000  Level Cleveland Center
Mon 12:38:47 PM 41.1808 -81.4964 290° West 405 466 34,000  Level Cleveland Center
Mon 12:39:47 PM 41.2192 -81.6375 289° West 410 472 34,000  Level Cleveland Center
Mon 12:40:47 PM 41.2553 -81.7764 289° West 410 472 34,000  Level Cleveland Center
Mon 12:41:47 PM 41.2914 -81.9150 289° West 405 466 34,000  Level Cleveland Center
Mon 12:42:48 PM 41.3272 -82.0542 292° West 405 466 34,000  Level Cleveland Center
Mon 12:43:47 PM 41.3692 -82.1906 307° West 405 466 34,000  Level Cleveland Center
Mon 12:44:47 PM 41.4361 -82.3086 305° West 398 458 34,000  Level Cleveland Center
Mon 12:45:47 PM 41.4989 -82.4267 306° West 398 458 34,000  Level Cleveland Center
Mon 12:46:47 PM 41.5636 -82.5453 305° West 398 458 34,000  Level Cleveland Center
Mon 12:47:47 PM 41.6264 -82.6639 306° West 398 458 34,000  Level Cleveland Center
Mon 12:48:47 PM 41.6886 -82.7797 307° West 393 452 34,000  Level Cleveland Center
Mon 12:49:48 PM 41.7531 -82.8961 305° West 393 452 34,000  Level Cleveland Center
Mon 12:50:47 PM 41.8172 -83.0183 304° West 393 452 34,000  Level Cleveland Center
Mon 12:51:47 PM 41.8794 -83.1406 307° West 393 452 34,000  Level Cleveland Center
Mon 12:52:47 PM 41.9394 -83.2492 304° West 399 459 34,000  Level Cleveland Center
Mon 12:53:47 PM 42.0011 -83.3717 304° West 399 459 34,000  Level Cleveland Center
Mon 12:54:47 PM 42.0606 -83.4919 294° West 399 459 34,000  Level Cleveland Center
Mon 12:55:47 PM 42.1050 -83.6283 298° West 393 452 34,000  Level Cleveland Center
Mon 12:56:47 PM 42.1558 -83.7569 296° West 393 452 34,000  Level Cleveland Center
Mon 12:57:47 PM 42.2042 -83.8911 297° West 393 452 34,000  Level Cleveland Center
Mon 12:58:47 PM 42.2583 -84.0369 297° West 393 452 34,000  Level Cleveland Center
Mon 12:59:47 PM 42.3064 -84.1631 295° West 388 447 34,000  Level Cleveland Center
Mon 01:00:47 PM 42.3522 -84.2950 297° West 389 448 34,000  Level Cleveland Center
Mon 01:02:56 PM 42.4597 -84.5758 296° West 380 437 34,000  Level Chicago Center
Mon 01:03:56 PM 42.5069 -84.7075 296° West 385 443 34,000  Level Chicago Center
Mon 01:04:56 PM 42.5539 -84.8367 296° West 385 443 34,000  Level Chicago Center
Mon 01:05:56 PM 42.6006 -84.9686 296° West 390 449 34,000  Level Chicago Center
Mon 01:06:56 PM 42.6472 -85.0983 296° West 390 449 34,000  Level Chicago Center
Mon 01:07:56 PM 42.6936 -85.2308 293° West 390 449 34,000  Level Chicago Center
Mon 01:08:56 PM 42.7311 -85.3497 294° West 390 449 34,000  Level Chicago Center
Mon 01:09:56 PM 42.7756 -85.4856 293° West 390 449 34,000  Level Chicago Center
Mon 01:10:56 PM 42.8175 -85.6217 293° West 390 449 34,000  Level Chicago Center
Mon 01:11:56 PM 42.8592 -85.7553 292° West 390 449 34,000  Level Chicago Center
Mon 01:12:56 PM 42.8989 -85.8919 292° West 390 449 34,000  Level Chicago Center
Mon 01:13:56 PM 42.9450 -86.0453 294° West 390 449 34,000  Level Chicago Center
Mon 01:14:56 PM 42.9906 -86.1850 293° West 397 457 34,000  Level Chicago Center
Mon 01:15:56 PM 43.0339 -86.3219 294° West 397 457 34,000  Level Chicago Center
Mon 01:16:56 PM 43.0725 -86.4422 293° West 392 451 34,000  Level Chicago Center
Mon 01:17:56 PM 43.1156 -86.5797 292° West 392 451 34,000  Level Chicago Center
Mon 01:18:56 PM 43.1561 -86.7172 293° West 392 451 34,000  Level Chicago Center
Mon 01:19:56 PM 43.1989 -86.8550 291° West 392 451 34,000  Level Chicago Center
Mon 01:20:56 PM 43.2372 -86.9931 293° West 392 451 34,000  Level Chicago Center
Mon 01:21:56 PM 43.2839 -87.1425 293° West 392 451 34,000  Level Chicago Center
Mon 01:22:56 PM 43.3261 -87.2808 291° West 392 451 34,000  Level Chicago Center
Mon 01:23:56 PM 43.3636 -87.4139 292° West 380 437 34,000  Level Chicago Center
Mon 01:24:56 PM 43.4033 -87.5497 292° West 375 432 34,000  Level Chicago Center
Mon 01:25:56 PM 43.4450 -87.6886 292° West 385 443 34,000  Level Chicago Center
Mon 01:26:56 PM 43.4844 -87.8250 289° West 390 449 34,000  Level Chicago Center
Mon 01:27:56 PM 43.5197 -87.9644 253° West 390 449 34,000  Level Chicago Center
Mon 01:28:56 PM 43.4897 -88.0967 248° West 363 418 34,000  Level Chicago Center
Mon 01:29:56 PM 43.4517 -88.2233 274° West 368 423 34,000  Level Chicago Center
Mon 01:30:56 PM 43.4589 -88.3547 300° West 368 423 34,000  Level Chicago Center
Mon 01:31:56 PM 43.5164 -88.4939 300° West 434 499 34,000  Level Chicago Center
Mon 01:32:56 PM 43.5778 -88.6422 297° West 422 486 34,000  Level Chicago Center
Mon 01:33:56 PM 43.6264 -88.7764 299° West 402 463 34,000  Level Chicago Center
Mon 01:34:56 PM 43.6811 -88.9136 298° West 397 457 34,000  Level Chicago Center
Mon 01:35:56 PM 43.7336 -89.0511 298° West 404 465 34,000  Level Chicago Center
Mon 01:36:56 PM 43.7861 -89.1889 298° West 404 465 34,000  Level Chicago Center
Mon 01:37:56 PM 43.8403 -89.3297 298° West 404 465 34,000  Level Chicago Center
Mon 01:38:56 PM 43.8925 -89.4678 297° West 399 459 34,000  Level Chicago Center
Mon 01:40:18 PM 43.9633 -89.6617 298° West 425 489 34,000  Level Minneapolis Center
Mon 01:41:18 PM 44.0161 -89.8025 300° West 416 479 34,000  Level Minneapolis Center
Mon 01:42:18 PM 44.0725 -89.9375 301° West 416 479 34,000  Level Minneapolis Center
Mon 01:43:18 PM 44.1328 -90.0758 301° West 416 479 34,000  Level Minneapolis Center
Mon 01:44:18 PM 44.1933 -90.2169 300° West 416 479 34,000  Level Minneapolis Center
Mon 01:45:17 PM 44.2514 -90.3558 302° West 416 479 34,000  Level Minneapolis Center
Mon 01:46:18 PM 44.3133 -90.4947 300° West 416 479 34,000  Level Minneapolis Center
Mon 01:47:18 PM 44.3711 -90.6342 300° West 416 479 34,000  Level Minneapolis Center
Mon 01:48:18 PM 44.4289 -90.7736 302° West 416 479 34,000 -700 Level Minneapolis Center
Mon 01:49:18 PM 44.4903 -90.9133 299° West 416 479 32,600 -1,866 Descending Minneapolis Center
Mon 01:50:17 PM 44.5456 -91.0508 301° West 416 479 30,300 -2,250 Descending Minneapolis Center
Mon 01:51:18 PM 44.6067 -91.1942 299° West 411 473 28,100 -2,200 Descending Minneapolis Center
Mon 01:52:17 PM 44.6594 -91.3292 301° West 407 468 25,900 -2,150 Descending Minneapolis Center
Mon 01:53:18 PM 44.7181 -91.4672 300° West 407 468 23,800 -1,934 Descending Minneapolis Center
Mon 01:54:18 PM 44.7639 -91.5797 300° West 392 451 22,000 -1,850 Descending Minneapolis Center
Mon 01:55:18 PM 44.8136 -91.7011 299° West 373 429 20,100 -1,950 Descending Minneapolis Center
Mon 01:56:18 PM 44.8633 -91.8253 307° West 363 418 18,100 -2,211 Descending Minneapolis Center
Mon 01:56:53 PM 44.9075 -91.9086 297° West 378 435 16,600 -2,108 Descending FAA TRACON SMA TRACON (SMA)
Mon 01:57:32 PM 44.9350 -91.9839 300° West 358 412 15,500 -1,800 Descending FAA TRACON SMA TRACON (SMA)
Mon 01:58:13 PM 44.9689 -92.0675 298° West 352 405 14,200 -1,852 Descending FAA TRACON SMA TRACON (SMA)
Mon 01:58:53 PM 44.9992 -92.1492 299° West 343 395 13,000 -1,725 Descending FAA TRACON SMA TRACON (SMA)
Mon 01:59:33 PM 45.0272 -92.2197 288° West 336 387 11,900 -1,500 Descending FAA TRACON SMA TRACON (SMA)
Mon 02:00:13 PM 45.0458 -92.3006 262° West 321 369 11,000 -684 Descending FAA TRACON SMA TRACON (SMA)
Mon 02:00:52 PM 45.0375 -92.3856 257° West 316 364 11,000 -300 Level FAA TRACON SMA TRACON (SMA)
Mon 02:01:33 PM 45.0258 -92.4581 248° West 305 351 10,600 -815 Descending FAA TRACON SMA TRACON (SMA)
Mon 02:02:13 PM 45.0064 -92.5272 244° Southwest 270 311 9,900 -1,443 Descending FAA TRACON SMA TRACON (SMA)
Mon 02:02:52 PM 44.9839 -92.5928 245° Southwest 265 305 8,700 -1,725 Descending FAA TRACON SMA TRACON (SMA)
Mon 02:03:33 PM 44.9650 -92.6500 244° Southwest 263 303 7,600 -1,259 Descending FAA TRACON SMA TRACON (SMA)
Mon 02:04:13 PM 44.9436 -92.7128 244° Southwest 256 295 7,000 -675 Descending FAA TRACON SMA TRACON (SMA)
Mon 02:04:53 PM 44.9219 -92.7747 245° Southwest 254 292 6,700 -963 Descending FAA TRACON SMA TRACON (SMA)
Mon 02:05:34 PM 44.9042 -92.8297 244° Southwest 251 289 5,700 -1,704 Descending FAA TRACON SMA TRACON (SMA)
Mon 02:06:14 PM 44.8833 -92.8911 245° Southwest 251 289 4,400 -1,500 Descending FAA TRACON SMA TRACON (SMA)
Mon 02:06:54 PM 44.8636 -92.9511 244° Southwest 242 278 3,700 -750 Descending FAA TRACON SMA TRACON (SMA)
Mon 02:07:34 PM 44.8472 -92.9975 257° West 210 242 3,400 -600 Descending FAA TRACON SMA TRACON (SMA)
Mon 02:08:14 PM 44.8392 -93.0469 276° West 186 214 2,900 -608 Descending FAA TRACON SMA TRACON (SMA)
Mon 02:08:53 PM 44.8431 -93.0953 293° West 178 205 2,600 -675 Descending FAA TRACON SMA TRACON (SMA)
Mon 02:09:34 PM 44.8536 -93.1303 302° West 156 180 2,000 -889 Descending FAA TRACON SMA TRACON (SMA)
Mon 02:10:14 PM 44.8669 -93.1603 301° West 128 147 1,400 -750 Descending FAA TRACON SMA TRACON (SMA)
Mon 02:10:54 PM 44.8783 -93.1869 301° West 129 148 1,000 -600 Descending FAA TRACON SMA TRACON (SMA)

Login

Don't have an account? Register now (free) for customized features, flight alerts, and more!